Time;durP1;ratioP1;P1;durP2;ratioP2;P2;SDS_P1;SDS_P2;PMS_P1;PMS_P2;Temp;Humidity;BMP_temperature;BMP_pressure;BME280_temperature;BME280_humidity;BME280_pressure;Samples;Min_cycle;Max_cycle;Signal;HPM_P1;HPM_P2
2023/06/09 00:00:30;;;;;;;3.13;1.83;;;;;;;;;;5092535;28;20024;-64
2023/06/09 00:02:57;;;;;;;6.53;2.33;;;;;;;;;;5092577;28;20035;-63
2023/06/09 00:05:25;;;;;;;3.43;2.53;;;;;;;;;;5092596;28;20093;-64
2023/06/09 00:07:55;;;;;;;6.00;2.73;;;;;;;;;;5089176;28;20159;-64
2023/06/09 00:10:22;;;;;;;5.37;3.03;;;;;;;;;;5102067;28;20028;-64
2023/06/09 00:12:49;;;;;;;5.23;2.87;;;;;;;;;;5087407;28;20428;-61
2023/06/09 00:15:15;;;;;;;5.70;2.93;;;;;;;;;;5087531;28;20502;-61
2023/06/09 00:17:57;;;;;;;3.83;1.60;;;;;;;;;;5090451;28;20043;-61
2023/06/09 00:20:25;;;;;;;12.83;3.27;;;;;;;;;;5092752;28;20093;-63
2023/06/09 00:22:55;;;;;;;7.63;3.10;;;;;;;;;;5092061;28;20050;-63
2023/06/09 00:25:21;;;;;;;10.23;3.23;;;;;;;;;;5092363;28;20020;-61
2023/06/09 00:27:48;;;;;;;8.93;3.13;;;;;;;;;;5092168;28;20028;-61
2023/06/09 00:30:15;;;;;;;5.07;2.87;;;;;;;;;;5092676;28;20031;-62
2023/06/09 00:32:45;;;;;;;5.87;3.27;;;;;;;;;;5108053;28;20519;-64
2023/06/09 00:35:12;;;;;;;4.13;2.73;;;;;;;;;;5111850;28;20030;-64
2023/06/09 00:37:39;;;;;;;2.53;1.93;;;;;;;;;;5111791;28;20027;-62
2023/06/09 00:40:07;;;;;;;4.97;2.57;;;;;;;;;;5100954;28;20462;-61
2023/06/09 00:42:34;;;;;;;5.07;2.30;;;;;;;;;;5088733;28;20061;-62
2023/06/09 00:45:01;;;;;;;5.77;2.63;;;;;;;;;;5116528;28;20019;-62
2023/06/09 00:47:28;;;;;;;3.93;2.20;;;;;;;;;;5116597;28;20038;-60
2023/06/09 00:49:55;;;;;;;5.03;2.93;;;;;;;;;;5116666;28;20111;-60
2023/06/09 00:52:21;;;;;;;4.90;2.57;;;;;;;;;;5094774;28;20470;-60
2023/06/09 00:54:48;;;;;;;4.70;3.10;;;;;;;;;;5091178;28;20041;-61
2023/06/09 00:57:16;;;;;;;6.73;2.83;;;;;;;;;;5091049;28;20020;-61
2023/06/09 00:59:43;;;;;;;4.27;2.40;;;;;;;;;;5090583;28;20027;-61
2023/06/09 01:02:12;;;;;;;5.20;2.73;;;;;;;;;;5092991;28;20039;-63
2023/06/09 01:04:49;;;;;;;6.87;3.97;;;;;;;;;;5096309;28;20528;-61
2023/06/09 01:07:28;;;;;;;5.23;3.20;;;;;;;;;;5095730;28;20492;-61
2023/06/09 01:09:55;;;;;;;6.97;3.10;;;;;;;;;;5095747;28;20054;-60
2023/06/09 01:12:28;;;;;;;5.67;3.27;;;;;;;;;;5095408;28;20028;-61
2023/06/09 01:15:02;;;;;;;5.33;3.17;;;;;;;;;;5093525;28;20036;-61
2023/06/09 01:17:29;;;;;;;;;;;;;;;;;;5091119;28;20032;-61
2023/06/09 01:19:58;;;;;;;4.87;3.50;;;;;;;;;;5090821;28;19904;-61
2023/06/09 01:22:29;;;;;;;8.63;2.40;;;;;;;;;;5090772;28;20025;-62
2023/06/09 01:24:57;;;;;;;5.03;3.43;;;;;;;;;;5107502;28;20027;-62
2023/06/09 01:27:24;;;;;;;7.63;2.93;;;;;;;;;;5115582;28;20023;-61
2023/06/09 01:29:52;;;;;;;4.80;2.67;;;;;;;;;;5115334;28;20146;-62
2023/06/09 01:32:19;;;;;;;7.03;2.77;;;;;;;;;;5115479;28;20023;-62
2023/06/09 01:34:46;;;;;;;7.87;3.30;;;;;;;;;;5105542;28;20042;-60
2023/06/09 01:37:13;;;;;;;4.33;2.93;;;;;;;;;;5092273;28;20024;-61
2023/06/09 01:39:41;;;;;;;10.37;3.17;;;;;;;;;;5089024;28;20021;-60
2023/06/09 01:42:08;;;;;;;5.40;3.03;;;;;;;;;;5089959;28;20482;-60
2023/06/09 01:44:35;;;;;;;6.33;3.43;;;;;;;;;;5091144;28;20417;-61
2023/06/09 01:47:02;;;;;;;4.70;2.73;;;;;;;;;;5091919;28;20020;-60
2023/06/09 01:49:32;;;;;;;3.90;2.90;;;;;;;;;;5094858;28;20020;-60
2023/06/09 01:52:02;;;;;;;22.33;3.77;;;;;;;;;;5084668;28;20044;-61
2023/06/09 01:54:49;;;;;;;2.80;2.20;;;;;;;;;;5074739;28;20491;-61
2023/06/09 01:57:20;;;;;;;4.73;2.60;;;;;;;;;;5114496;28;20023;-61
2023/06/09 01:59:58;;;;;;;6.47;2.83;;;;;;;;;;5112154;28;20030;-60
2023/06/09 02:02:29;;;;;;;3.47;2.20;;;;;;;;;;5110123;28;20039;-61
2023/06/09 02:04:58;;;;;;;5.47;3.03;;;;;;;;;;5092019;28;20465;-63
2023/06/09 02:07:25;;;;;;;3.97;2.53;;;;;;;;;;5089939;28;20111;-61
2023/06/09 02:09:51;;;;;;;4.07;2.70;;;;;;;;;;5091767;28;20031;-61
2023/06/09 02:12:18;;;;;;;2.87;2.23;;;;;;;;;;5094459;28;20032;-61
2023/06/09 02:14:45;;;;;;;3.63;2.27;;;;;;;;;;5094465;28;20012;-61
2023/06/09 02:17:12;;;;;;;6.27;2.63;;;;;;;;;;5094317;28;20024;-61
2023/06/09 02:19:39;;;;;;;9.87;2.93;;;;;;;;;;5095276;28;20031;-61
2023/06/09 02:22:06;;;;;;;2.63;2.30;;;;;;;;;;5091483;28;20513;-60
2023/06/09 02:24:33;;;;;;;7.17;3.87;;;;;;;;;;5089198;28;20060;-60
2023/06/09 02:27:00;;;;;;;4.30;2.73;;;;;;;;;;5089112;28;20020;-60
2023/06/09 02:29:27;;;;;;;4.20;2.60;;;;;;;;;;5099864;28;20420;-61
2023/06/09 02:31:55;;;;;;;3.40;2.33;;;;;;;;;;5111278;28;20038;-60
2023/06/09 02:34:26;;;;;;;6.57;3.60;;;;;;;;;;5114325;28;20027;-60
2023/06/09 02:36:54;;;;;;;4.47;2.70;;;;;;;;;;5114316;28;20077;-59
2023/06/09 02:39:21;;;;;;;9.80;3.80;;;;;;;;;;5111763;28;20058;-60
2023/06/09 02:41:48;;;;;;;12.87;2.93;;;;;;;;;;5114304;28;20401;-61
2023/06/09 02:44:16;;;;;;;4.10;2.77;;;;;;;;;;5112110;28;20020;-61
2023/06/09 02:46:44;;;;;;;6.87;3.77;;;;;;;;;;5109046;28;20039;-60
2023/06/09 02:49:11;;;;;;;22.53;3.83;;;;;;;;;;5108954;28;20080;-61
2023/06/09 02:51:38;;;;;;;4.17;2.80;;;;;;;;;;5079976;28;20024;-60
2023/06/09 02:54:05;;;;;;;9.97;3.77;;;;;;;;;;5069437;28;20021;-61
2023/06/09 02:56:32;;;;;;;5.07;3.47;;;;;;;;;;5073452;28;20071;-60
2023/06/09 02:58:58;;;;;;;3.47;2.73;;;;;;;;;;5073172;28;20036;-61
2023/06/09 03:01:27;;;;;;;3.20;2.63;;;;;;;;;;5089630;28;20043;-60
2023/06/09 03:03:53;;;;;;;6.23;3.43;;;;;;;;;;5092867;28;20050;-60
2023/06/09 03:06:20;;;;;;;8.47;3.20;;;;;;;;;;5092264;28;20036;-59
2023/06/09 03:08:47;;;;;;;5.53;3.07;;;;;;;;;;5088350;28;20028;-62
2023/06/09 03:11:14;;;;;;;5.67;3.17;;;;;;;;;;5089410;28;20029;-61
2023/06/09 03:13:41;;;;;;;5.07;3.30;;;;;;;;;;5088183;28;20034;-61
2023/06/09 03:16:08;;;;;;;3.67;2.20;;;;;;;;;;5088253;28;20455;-60
2023/06/09 03:18:34;;;;;;;3.40;2.37;;;;;;;;;;5092978;28;20058;-61
2023/06/09 03:21:01;;;;;;;13.63;2.50;;;;;;;;;;5093959;28;20517;-60
2023/06/09 03:23:28;;;;;;;3.80;2.80;;;;;;;;;;5092694;28;20044;-60
2023/06/09 03:25:55;;;;;;;2.83;2.23;;;;;;;;;;5093042;28;20024;-60
2023/06/09 03:28:22;;;;;;;9.23;3.60;;;;;;;;;;5092740;28;20023;-60
2023/06/09 03:30:48;;;;;;;6.57;3.40;;;;;;;;;;5088045;28;20027;-60
2023/06/09 03:33:18;;;;;;;5.90;3.47;;;;;;;;;;5088902;28;20487;-60
2023/06/09 03:35:45;;;;;;;7.10;4.00;;;;;;;;;;5087717;28;20028;-60
2023/06/09 03:38:12;;;;;;;6.20;3.47;;;;;;;;;;5087756;28;20020;-60
2023/06/09 03:40:39;;;;;;;4.20;2.80;;;;;;;;;;5091875;28;20021;-59
2023/06/09 03:43:07;;;;;;;14.43;3.27;;;;;;;;;;5103885;28;20035;-60
2023/06/09 03:45:34;;;;;;;5.03;3.13;;;;;;;;;;5113123;28;20032;-60
2023/06/09 03:48:02;;;;;;;7.13;3.57;;;;;;;;;;5112823;28;20389;-60
2023/06/09 03:50:29;;;;;;;6.53;3.67;;;;;;;;;;5113084;28;20030;-60
2023/06/09 03:52:56;;;;;;;4.70;2.83;;;;;;;;;;5080166;28;20522;-60
2023/06/09 03:55:24;;;;;;;7.53;3.07;;;;;;;;;;5087754;28;20493;-61
2023/06/09 03:57:51;;;;;;;4.20;2.93;;;;;;;;;;5087635;28;20474;-60
2023/06/09 04:00:18;;;;;;;5.73;3.17;;;;;;;;;;5087407;28;20032;-60
2023/06/09 04:02:45;;;;;;;4.90;3.10;;;;;;;;;;5091257;28;20647;-60
2023/06/09 04:05:12;;;;;;;8.00;2.73;;;;;;;;;;5112792;28;20034;-60
2023/06/09 04:07:39;;;;;;;5.23;3.00;;;;;;;;;;5112794;28;20028;-60
2023/06/09 04:10:06;;;;;;;3.07;2.07;;;;;;;;;;5112584;28;20462;-60
2023/06/09 04:12:37;;;;;;;2.83;2.20;;;;;;;;;;5112755;28;20027;-60
2023/06/09 04:15:06;;;;;;;3.40;2.10;;;;;;;;;;5106481;28;20043;-60
2023/06/09 04:17:34;;;;;;;5.13;3.27;;;;;;;;;;5107731;28;20512;-62
2023/06/09 04:20:04;;;;;;;4.47;2.80;;;;;;;;;;5107794;28;20059;-61
2023/06/09 04:22:31;;;;;;;5.23;3.03;;;;;;;;;;5107516;28;20036;-61
2023/06/09 04:24:58;;;;;;;5.03;3.03;;;;;;;;;;5099238;28;20028;-60
2023/06/09 04:27:27;;;;;;;3.73;2.40;;;;;;;;;;5091992;28;20020;-60
2023/06/09 04:29:54;;;;;;;3.43;2.73;;;;;;;;;;5091810;28;20028;-61
2023/06/09 04:32:21;;;;;;;5.27;3.43;;;;;;;;;;5091664;28;20055;-60
2023/06/09 04:34:48;;;;;;;3.70;2.77;;;;;;;;;;5093068;28;20489;-59
2023/06/09 04:37:15;;;;;;;5.93;2.87;;;;;;;;;;5088516;28;20107;-60
2023/06/09 04:39:45;;;;;;;3.90;2.63;;;;;;;;;;5086942;28;20024;-60
2023/06/09 04:42:12;;;;;;;4.83;2.73;;;;;;;;;;5088560;28;20078;-60
2023/06/09 04:44:40;;;;;;;4.37;3.10;;;;;;;;;;5107273;28;20024;-59
2023/06/09 04:47:07;;;;;;;5.67;3.40;;;;;;;;;;5109999;28;20032;-60
2023/06/09 04:49:35;;;;;;;5.00;3.27;;;;;;;;;;5112001;28;20102;-61
2023/06/09 04:52:02;;;;;;;4.10;2.97;;;;;;;;;;5091602;28;20375;-60
2023/06/09 04:54:32;;;;;;;4.33;3.03;;;;;;;;;;5108879;28;20452;-59
2023/06/09 04:57:00;;;;;;;4.27;2.73;;;;;;;;;;5112129;28;20047;-59
2023/06/09 04:59:28;;;;;;;3.90;2.40;;;;;;;;;;5109116;28;20042;-60
2023/06/09 05:01:55;;;;;;;4.43;3.30;;;;;;;;;;5091017;28;20053;-61
2023/06/09 05:04:22;;;;;;;3.40;2.57;;;;;;;;;;5086923;28;20024;-61
2023/06/09 05:06:49;;;;;;;4.93;2.30;;;;;;;;;;5086566;28;20047;-59
2023/06/09 05:09:16;;;;;;;4.07;3.13;;;;;;;;;;5088986;28;20506;-60
2023/06/09 05:11:43;;;;;;;6.03;3.17;;;;;;;;;;5101356;28;20039;-59
2023/06/09 05:14:09;;;;;;;3.37;2.57;;;;;;;;;;5112643;28;20059;-60
2023/06/09 05:16:37;;;;;;;6.33;3.27;;;;;;;;;;5116015;28;20094;-60
2023/06/09 05:19:04;;;;;;;5.83;3.07;;;;;;;;;;5115521;28;20062;-60
2023/06/09 05:21:31;;;;;;;3.37;2.67;;;;;;;;;;5108037;28;20035;-60
2023/06/09 05:23:57;;;;;;;6.00;3.43;;;;;;;;;;5090491;28;20043;-59
2023/06/09 05:26:25;;;;;;;2.67;2.13;;;;;;;;;;5089885;28;20541;-60
2023/06/09 05:28:52;;;;;;;5.03;2.70;;;;;;;;;;5090413;28;20097;-60
2023/06/09 05:31:19;;;;;;;4.83;2.83;;;;;;;;;;5091495;28;20024;-60
2023/06/09 05:33:46;;;;;;;3.03;2.50;;;;;;;;;;5094189;28;20459;-61
2023/06/09 05:36:12;;;;;;;3.10;2.27;;;;;;;;;;5076680;28;20024;-59
2023/06/09 05:38:39;;;;;;;3.67;2.80;;;;;;;;;;5095001;28;20020;-59
2023/06/09 05:41:06;;;;;;;7.37;3.97;;;;;;;;;;5094962;28;20042;-59
2023/06/09 05:43:33;;;;;;;5.93;3.93;;;;;;;;;;5104254;28;20471;-60
2023/06/09 05:45:59;;;;;;;5.00;3.37;;;;;;;;;;5077303;28;20437;-59
2023/06/09 05:48:26;;;;;;;5.90;3.63;;;;;;;;;;5089738;28;20063;-60
2023/06/09 05:50:53;;;;;;;5.33;2.93;;;;;;;;;;5077262;28;20021;-59
2023/06/09 05:53:21;;;;;;;5.63;2.77;;;;;;;;;;5090450;28;20546;-59
2023/06/09 05:55:49;;;;;;;4.83;2.50;;;;;;;;;;5114853;28;20077;-59
2023/06/09 05:58:17;;;;;;;4.63;3.20;;;;;;;;;;5098209;28;20024;-60
2023/06/09 06:00:44;;;;;;;7.83;3.90;;;;;;;;;;5094682;28;20085;-60
2023/06/09 06:03:11;;;;;;;4.47;3.13;;;;;;;;;;5100130;28;20462;-60
2023/06/09 06:05:38;;;;;;;7.37;4.53;;;;;;;;;;5114365;28;20139;-60
2023/06/09 06:08:07;;;;;;;6.23;3.57;;;;;;;;;;5109442;28;20023;-60
2023/06/09 06:10:34;;;;;;;4.83;3.23;;;;;;;;;;5109298;28;20088;-60
2023/06/09 06:13:02;;;;;;;5.07;3.80;;;;;;;;;;5108261;28;20054;-60
2023/06/09 06:15:28;;;;;;;5.13;3.17;;;;;;;;;;5094321;28;20040;-59
2023/06/09 06:17:55;;;;;;;4.43;2.87;;;;;;;;;;5092895;28;20421;-60
2023/06/09 06:20:22;;;;;;;5.20;3.23;;;;;;;;;;5094290;28;20450;-60
2023/06/09 06:22:49;;;;;;;4.00;3.40;;;;;;;;;;5094178;28;20028;-60
2023/06/09 06:25:17;;;;;;;7.63;3.73;;;;;;;;;;5109158;28;20028;-59
2023/06/09 06:27:44;;;;;;;3.77;2.67;;;;;;;;;;5113639;28;20466;-59
2023/06/09 06:30:11;;;;;;;19.13;3.80;;;;;;;;;;5109308;28;20019;-59
2023/06/09 06:32:39;;;;;;;4.90;3.63;;;;;;;;;;5109271;28;20081;-59
2023/06/09 06:35:09;;;;;;;4.77;3.07;;;;;;;;;;5098469;28;20110;-59
2023/06/09 06:37:36;;;;;;;10.50;3.97;;;;;;;;;;5088785;28;20028;-59
2023/06/09 06:40:03;;;;;;;4.00;3.03;;;;;;;;;;5093668;28;20028;-60
2023/06/09 06:42:30;;;;;;;4.97;3.50;;;;;;;;;;5094054;28;20036;-59
2023/06/09 06:44:56;;;;;;;3.87;2.70;;;;;;;;;;5098441;28;20027;-59
2023/06/09 06:47:23;;;;;;;5.63;3.70;;;;;;;;;;5114350;28;20030;-60
2023/06/09 06:49:50;;;;;;;4.53;3.43;;;;;;;;;;5114412;28;20027;-60
2023/06/09 06:52:16;;;;;;;5.17;2.73;;;;;;;;;;5109184;28;20027;-59
2023/06/09 06:54:43;;;;;;;8.93;3.13;;;;;;;;;;5108197;28;20022;-60
2023/06/09 06:57:10;;;;;;;3.93;2.53;;;;;;;;;;5091290;28;20035;-59
2023/06/09 06:59:37;;;;;;;4.40;2.97;;;;;;;;;;5088525;28;20020;-59
2023/06/09 07:02:03;;;;;;;3.40;2.70;;;;;;;;;;5092145;28;20032;-59
2023/06/09 07:04:31;;;;;;;4.77;3.37;;;;;;;;;;5093655;28;20021;-59
2023/06/09 07:06:58;;;;;;;2.93;2.27;;;;;;;;;;5108155;28;20501;-59
2023/06/09 07:09:25;;;;;;;4.37;3.60;;;;;;;;;;5113924;28;20030;-59
2023/06/09 07:11:51;;;;;;;11.87;3.87;;;;;;;;;;5113035;28;20375;-59
2023/06/09 07:14:18;;;;;;;4.27;2.67;;;;;;;;;;5109517;28;20035;-59
2023/06/09 07:16:46;;;;;;;5.47;2.47;;;;;;;;;;5098450;28;20104;-60
2023/06/09 07:19:12;;;;;;;3.00;2.50;;;;;;;;;;5087743;28;20028;-59
2023/06/09 07:21:39;;;;;;;4.67;2.37;;;;;;;;;;5087835;28;20039;-59
2023/06/09 07:24:06;;;;;;;4.30;3.67;;;;;;;;;;5091143;28;20093;-59
2023/06/09 07:26:33;;;;;;;3.33;2.33;;;;;;;;;;5097261;28;20035;-59
2023/06/09 07:29:00;;;;;;;3.07;2.40;;;;;;;;;;5112959;28;20039;-59
2023/06/09 07:31:27;;;;;;;4.63;2.90;;;;;;;;;;5113584;28;20031;-59
2023/06/09 07:33:54;;;;;;;4.70;2.87;;;;;;;;;;5113334;28;20020;-59
2023/06/09 07:36:21;;;;;;;4.33;2.70;;;;;;;;;;5109726;28;20031;-60
2023/06/09 07:38:48;;;;;;;6.40;2.93;;;;;;;;;;5087157;28;20106;-59
2023/06/09 07:41:15;;;;;;;5.77;3.60;;;;;;;;;;5087375;28;20129;-59
2023/06/09 07:43:43;;;;;;;4.17;2.60;;;;;;;;;;5087399;28;20012;-60
2023/06/09 07:46:11;;;;;;;3.43;2.43;;;;;;;;;;5089851;28;20020;-59
2023/06/09 07:48:38;;;;;;;3.40;2.70;;;;;;;;;;5102486;28;20086;-60
2023/06/09 07:51:05;;;;;;;5.07;3.20;;;;;;;;;;5112971;28;20047;-59
2023/06/09 07:53:32;;;;;;;4.27;3.13;;;;;;;;;;5112857;28;20016;-60
2023/06/09 07:55:59;;;;;;;2.47;1.87;;;;;;;;;;5113037;28;20028;-59
2023/06/09 07:58:26;;;;;;;4.90;3.00;;;;;;;;;;5107995;28;20032;-59
2023/06/09 08:00:53;;;;;;;3.37;2.03;;;;;;;;;;5107589;28;20482;-59
2023/06/09 08:03:19;;;;;;;5.03;3.03;;;;;;;;;;5106963;28;20024;-59
2023/06/09 08:05:47;;;;;;;3.67;2.70;;;;;;;;;;5107382;28;20023;-59
2023/06/09 08:08:14;;;;;;;4.77;2.50;;;;;;;;;;5107383;28;20381;-59
2023/06/09 08:10:41;;;;;;;3.43;2.53;;;;;;;;;;5112420;28;20036;-59
2023/06/09 08:13:08;;;;;;;5.87;2.40;;;;;;;;;;5112759;28;20550;-59
2023/06/09 08:15:36;;;;;;;2.80;2.13;;;;;;;;;;5112724;28;20023;-59
2023/06/09 08:18:03;;;;;;;9.43;2.60;;;;;;;;;;5112748;28;20462;-59
2023/06/09 08:20:29;;;;;;;5.17;3.27;;;;;;;;;;5091392;28;20610;-59
2023/06/09 08:22:57;;;;;;;8.77;2.60;;;;;;;;;;5087047;28;20488;-59
2023/06/09 08:25:24;;;;;;;2.87;2.17;;;;;;;;;;5086900;28;20028;-59
2023/06/09 08:27:51;;;;;;;3.10;2.63;;;;;;;;;;5086696;28;20016;-59
2023/06/09 08:30:17;;;;;;;3.63;2.50;;;;;;;;;;5082563;28;20024;-59
2023/06/09 08:32:46;;;;;;;6.03;2.97;;;;;;;;;;5112648;28;20027;-59
2023/06/09 08:35:13;;;;;;;5.03;2.67;;;;;;;;;;5112417;28;20035;-59
2023/06/09 08:37:41;;;;;;;2.37;1.90;;;;;;;;;;5112064;28;20027;-59
2023/06/09 08:40:08;;;;;;;8.23;2.77;;;;;;;;;;5110207;28;20022;-60
2023/06/09 08:42:36;;;;;;;3.33;2.40;;;;;;;;;;5110676;28;20042;-59
2023/06/09 08:45:04;;;;;;;10.17;2.83;;;;;;;;;;5106738;28;20493;-59
2023/06/09 08:47:32;;;;;;;3.87;3.00;;;;;;;;;;5106790;28;20027;-59
2023/06/09 08:49:59;;;;;;;6.37;3.03;;;;;;;;;;5106712;28;20039;-60
2023/06/09 08:52:26;;;;;;;3.47;2.60;;;;;;;;;;5091175;28;20023;-59
2023/06/09 08:54:54;;;;;;;4.63;2.70;;;;;;;;;;5096152;28;20016;-59
2023/06/09 08:57:21;;;;;;;5.10;3.50;;;;;;;;;;5096027;28;20577;-59
2023/06/09 08:59:50;;;;;;;3.80;2.13;;;;;;;;;;5096075;28;20484;-59
2023/06/09 09:02:18;;;;;;;2.57;1.80;;;;;;;;;;5112923;28;20070;-59
2023/06/09 09:04:45;;;;;;;4.00;3.23;;;;;;;;;;5115524;28;20348;-59
2023/06/09 09:07:12;;;;;;;4.90;3.03;;;;;;;;;;5110863;28;20038;-59
2023/06/09 09:09:39;;;;;;;3.43;2.30;;;;;;;;;;5110465;28;20052;-59
2023/06/09 09:12:10;;;;;;;12.57;3.43;;;;;;;;;;5097588;28;20118;-59
2023/06/09 09:14:43;;;;;;;5.50;2.73;;;;;;;;;;5090450;28;20024;-59
2023/06/09 09:17:14;;;;;;;5.90;2.77;;;;;;;;;;5095453;28;20027;-59
2023/06/09 09:19:48;;;;;;;3.60;2.10;;;;;;;;;;5095344;28;20027;-59
2023/06/09 09:22:15;;;;;;;5.00;2.83;;;;;;;;;;5105027;28;20031;-59
2023/06/09 09:24:45;;;;;;;3.97;2.37;;;;;;;;;;5115705;28;20028;-59
2023/06/09 09:27:16;;;;;;;4.37;2.97;;;;;;;;;;5114604;28;20027;-59
2023/06/09 09:29:43;;;;;;;2.73;2.20;;;;;;;;;;5110303;28;20027;-59
2023/06/09 09:32:10;;;;;;;4.40;2.93;;;;;;;;;;5103685;28;20146;-59
2023/06/09 09:34:41;;;;;;;3.67;2.27;;;;;;;;;;5090065;28;20027;-59
2023/06/09 09:37:15;;;;;;;5.30;2.83;;;;;;;;;;5089903;28;20031;-59
2023/06/09 09:39:49;;;;;;;1.83;1.55;;;;;;;;;;5095245;28;20042;-59
2023/06/09 09:42:16;;;;;;;2.80;2.13;;;;;;;;;;5099058;28;20408;-59
2023/06/09 09:44:47;;;;;;;5.57;2.70;;;;;;;;;;5113777;28;20259;-59
2023/06/09 09:47:19;;;;;;;4.37;2.47;;;;;;;;;;5115462;28;20466;-59
2023/06/09 09:49:58;;;;;;;3.23;2.40;;;;;;;;;;5113080;28;20028;-59
2023/06/09 09:52:28;;;;;;;3.27;2.37;;;;;;;;;;5107303;28;20026;-59
2023/06/09 09:54:56;;;;;;;3.47;2.70;;;;;;;;;;5089641;28;20146;-59
2023/06/09 09:57:24;;;;;;;4.33;2.83;;;;;;;;;;5089498;28;20027;-59
2023/06/09 09:59:52;;;;;;;3.93;2.70;;;;;;;;;;5091239;28;20377;-59
2023/06/09 10:02:23;;;;;;;2.67;2.00;;;;;;;;;;5093241;28;20387;-59
2023/06/09 10:04:51;;;;;;;4.40;3.27;;;;;;;;;;5095668;28;20744;-59
2023/06/09 10:07:21;;;;;;;2.03;1.70;;;;;;;;;;5094823;28;20123;-59
2023/06/09 10:09:54;;;;;;;3.37;2.37;;;;;;;;;;5094411;28;20492;-59
2023/06/09 10:12:22;;;;;;;10.13;3.50;;;;;;;;;;5092007;28;20066;-60
2023/06/09 10:14:49;;;;;;;4.20;3.17;;;;;;;;;;5104080;28;20032;-59
2023/06/09 10:17:21;;;;;;;5.30;2.90;;;;;;;;;;5109336;28;20030;-59
2023/06/09 10:19:51;;;;;;;4.13;2.87;;;;;;;;;;5109747;28;20374;-59
2023/06/09 10:22:21;;;;;;;5.30;2.90;;;;;;;;;;5111148;28;20043;-59
2023/06/09 10:24:48;;;;;;;5.03;3.77;;;;;;;;;;5103108;28;20506;-59
2023/06/09 10:27:15;;;;;;;4.43;2.90;;;;;;;;;;5094188;28;20111;-59
2023/06/09 10:29:42;;;;;;;5.07;2.97;;;;;;;;;;5094128;28;20077;-59
2023/06/09 10:32:11;;;;;;;6.03;3.47;;;;;;;;;;5094062;28;20043;-59
2023/06/09 10:34:38;;;;;;;8.37;3.10;;;;;;;;;;5093888;28;20781;-59
2023/06/09 10:37:05;;;;;;;2.90;2.37;;;;;;;;;;5108478;28;20108;-59
2023/06/09 10:39:44;;;;;;;2.50;2.07;;;;;;;;;;5109049;28;20015;-59
2023/06/09 10:42:19;;;;;;;2.90;2.20;;;;;;;;;;5108863;28;20153;-59
2023/06/09 10:44:52;;;;;;;4.78;3.13;;;;;;;;;;5110643;28;20106;-59
2023/06/09 10:47:45;;;;;;;3.93;2.50;;;;;;;;;;5111628;28;20110;-59
2023/06/09 10:50:30;;;;;;;5.07;2.30;;;;;;;;;;5110278;28;20027;-59
2023/06/09 10:52:57;;;;;;;2.83;2.17;;;;;;;;;;5114185;28;20031;-59
2023/06/09 10:55:27;;;;;;;8.83;5.33;;;;;;;;;;5114088;28;20107;-59
2023/06/09 10:57:54;;;;;;;5.10;3.13;;;;;;;;;;5104761;28;20068;-59
2023/06/09 11:00:21;;;;;;;2.60;2.17;;;;;;;;;;5088195;28;20493;-59
2023/06/09 11:02:49;;;;;;;6.77;3.53;;;;;;;;;;5087992;28;20037;-60
2023/06/09 11:05:16;;;;;;;4.30;3.13;;;;;;;;;;5088023;28;20031;-59
2023/06/09 11:07:43;;;;;;;6.27;3.53;;;;;;;;;;5091486;28;20764;-59
2023/06/09 11:10:11;;;;;;;3.40;2.93;;;;;;;;;;5113041;28;20073;-59
2023/06/09 11:12:49;;;;;;;5.03;2.50;;;;;;;;;;5113531;28;20448;-59
2023/06/09 11:15:17;;;;;;;4.13;3.07;;;;;;;;;;5113668;28;20031;-59
2023/06/09 11:17:44;;;;;;;6.70;2.50;;;;;;;;;;5113062;28;20024;-59
2023/06/09 11:20:17;;;;;;;6.87;2.57;;;;;;;;;;5107754;28;20513;-59
2023/06/09 11:22:44;;;;;;;5.63;3.07;;;;;;;;;;5108014;28;20035;-60
2023/06/09 11:25:20;;;;;;;6.30;3.83;;;;;;;;;;5108074;28;20023;-60
2023/06/09 11:27:49;;;;;;;3.87;2.93;;;;;;;;;;5108070;28;20397;-59
2023/06/09 11:30:20;;;;;;;4.07;3.17;;;;;;;;;;5096440;28;20032;-59
2023/06/09 11:32:47;;;;;;;3.70;2.90;;;;;;;;;;5093081;28;20016;-59
2023/06/09 11:35:26;;;;;;;4.47;3.17;;;;;;;;;;5093000;28;20020;-59
2023/06/09 11:37:53;;;;;;;4.87;3.23;;;;;;;;;;5093015;28;20024;-59
2023/06/09 11:40:21;;;;;;;2.70;2.40;;;;;;;;;;5103977;28;20032;-59
2023/06/09 11:42:48;;;;;;;4.97;3.37;;;;;;;;;;5108288;28;20059;-59
2023/06/09 11:45:18;;;;;;;4.30;3.17;;;;;;;;;;5107957;28;20020;-59
2023/06/09 11:47:45;;;;;;;6.07;3.37;;;;;;;;;;5107714;28;20434;-59
2023/06/09 11:50:13;;;;;;;3.63;2.20;;;;;;;;;;5100773;28;20024;-59
2023/06/09 11:52:43;;;;;;;5.27;3.87;;;;;;;;;;5091168;28;20107;-59
2023/06/09 11:55:11;;;;;;;4.83;3.10;;;;;;;;;;5092455;28;20107;-59
2023/06/09 11:57:38;;;;;;;14.87;3.47;;;;;;;;;;5092798;28;20434;-59
2023/06/09 12:00:09;;;;;;;5.23;3.53;;;;;;;;;;5093932;28;20028;-61
2023/06/09 12:02:36;;;;;;;3.97;2.87;;;;;;;;;;5072228;28;20052;-59
2023/06/09 12:05:06;;;;;;;3.27;2.40;;;;;;;;;;5068005;28;20032;-59
2023/06/09 12:07:33;;;;;;;4.40;3.37;;;;;;;;;;5066834;28;20177;-59
2023/06/09 12:10:00;;;;;;;6.77;3.00;;;;;;;;;;5066860;28;20475;-59
2023/06/09 12:12:26;;;;;;;4.53;2.73;;;;;;;;;;5086151;28;20031;-59
2023/06/09 12:14:53;;;;;;;5.53;3.87;;;;;;;;;;5090201;28;20114;-59
2023/06/09 12:17:20;;;;;;;3.57;2.70;;;;;;;;;;5092085;28;20382;-60
2023/06/09 12:19:51;;;;;;;7.67;3.70;;;;;;;;;;5092319;28;20020;-60
2023/06/09 12:22:18;;;;;;;3.70;2.80;;;;;;;;;;5104518;28;20040;-59
2023/06/09 12:24:45;;;;;;;4.13;2.67;;;;;;;;;;5112151;28;20107;-59
2023/06/09 12:27:12;;;;;;;5.27;3.17;;;;;;;;;;5108484;28;20122;-59
2023/06/09 12:29:40;;;;;;;4.43;3.10;;;;;;;;;;5106844;28;20038;-59
2023/06/09 12:32:10;;;;;;;4.63;3.07;;;;;;;;;;5104916;28;20065;-59
2023/06/09 12:34:37;;;;;;;12.70;3.80;;;;;;;;;;5107168;28;20413;-59
2023/06/09 12:37:05;;;;;;;21.50;4.13;;;;;;;;;;5109930;28;20382;-59
2023/06/09 12:39:32;;;;;;;6.37;3.53;;;;;;;;;;5112622;28;20020;-59
2023/06/09 12:42:10;;;;;;;4.90;3.50;;;;;;;;;;5110699;28;20071;-59
2023/06/09 12:44:36;;;;;;;5.00;3.87;;;;;;;;;;5112187;28;20117;-59
2023/06/09 12:47:04;;;;;;;8.77;7.77;;;;;;;;;;5112456;28;20589;-60
2023/06/09 12:49:32;;;;;;;8.70;7.67;;;;;;;;;;5108234;28;20058;-59
2023/06/09 12:52:02;;;;;;;5.63;4.00;;;;;;;;;;5107064;28;20034;-60
2023/06/09 12:54:29;;;;;;;6.83;3.87;;;;;;;;;;5087675;28;20035;-59
2023/06/09 12:56:57;;;;;;;6.73;5.00;;;;;;;;;;5102986;28;20027;-59
2023/06/09 12:59:24;;;;;;;4.20;3.13;;;;;;;;;;5109722;28;20054;-60
2023/06/09 13:01:53;;;;;;;10.97;3.87;;;;;;;;;;5112275;28;20106;-59
2023/06/09 13:04:20;;;;;;;5.53;4.03;;;;;;;;;;5112319;28;20015;-59
2023/06/09 13:06:47;;;;;;;6.43;3.53;;;;;;;;;;5099981;28;20061;-59
2023/06/09 13:09:14;;;;;;;5.00;4.17;;;;;;;;;;5091950;28;20073;-59
2023/06/09 13:11:41;;;;;;;6.20;3.97;;;;;;;;;;5087795;28;20478;-60
2023/06/09 13:14:07;;;;;;;8.00;3.73;;;;;;;;;;5086373;28;20099;-59
2023/06/09 13:16:34;;;;;;;5.13;3.80;;;;;;;;;;5087282;28;20020;-59
2023/06/09 13:19:01;;;;;;;4.30;3.33;;;;;;;;;;5086329;28;20057;-59
2023/06/09 13:21:30;;;;;;;11.33;5.47;;;;;;;;;;5089110;28;20120;-59
2023/06/09 13:23:57;;;;;;;6.10;4.37;;;;;;;;;;5091691;28;20024;-59
2023/06/09 13:26:25;;;;;;;7.13;3.20;;;;;;;;;;5092267;28;20024;-59
2023/06/09 13:28:51;;;;;;;4.80;3.97;;;;;;;;;;5111933;28;20379;-59
2023/06/09 13:31:18;;;;;;;6.00;3.83;;;;;;;;;;5111474;28;20031;-59
2023/06/09 13:33:45;;;;;;;4.50;3.47;;;;;;;;;;5108957;28;20032;-60
2023/06/09 13:36:12;;;;;;;5.83;4.07;;;;;;;;;;5107030;28;20019;-60
2023/06/09 13:38:39;;;;;;;5.60;4.20;;;;;;;;;;5093476;28;20382;-60
2023/06/09 13:41:05;;;;;;;3.77;2.83;;;;;;;;;;5089842;28;20036;-60
2023/06/09 13:43:32;;;;;;;6.73;4.37;;;;;;;;;;5092024;28;20028;-60
2023/06/09 13:45:59;;;;;;;4.33;3.23;;;;;;;;;;5094967;28;20052;-60
2023/06/09 13:48:26;;;;;;;5.17;3.60;;;;;;;;;;5095504;28;20024;-60
2023/06/09 13:50:53;;;;;;;5.47;3.83;;;;;;;;;;5094809;28;20035;-60
2023/06/09 13:53:22;;;;;;;5.47;4.10;;;;;;;;;;5094804;28;20031;-60
2023/06/09 13:55:49;;;;;;;9.43;4.00;;;;;;;;;;5092114;28;20051;-60
2023/06/09 13:58:15;;;;;;;5.57;4.30;;;;;;;;;;5090359;28;20032;-60
2023/06/09 14:00:42;;;;;;;11.57;4.60;;;;;;;;;;5089423;28;20507;-60
2023/06/09 14:03:09;;;;;;;10.43;5.03;;;;;;;;;;5089382;28;20016;-60
2023/06/09 14:05:36;;;;;;;6.33;4.30;;;;;;;;;;5091062;28;20028;-60
2023/06/09 14:08:02;;;;;;;8.03;4.20;;;;;;;;;;5094626;28;20024;-60
2023/06/09 14:10:29;;;;;;;12.07;4.23;;;;;;;;;;5114520;28;20458;-60
2023/06/09 14:12:56;;;;;;;6.20;3.57;;;;;;;;;;5114961;28;20034;-60
2023/06/09 14:15:23;;;;;;;7.30;3.70;;;;;;;;;;5114928;28;20024;-60
2023/06/09 14:17:49;;;;;;;7.60;4.10;;;;;;;;;;5112936;28;20077;-61
2023/06/09 14:20:19;;;;;;;10.80;4.27;;;;;;;;;;5093462;28;20106;-60
2023/06/09 14:22:46;;;;;;;5.77;3.10;;;;;;;;;;5088881;28;20028;-60
2023/06/09 14:25:18;;;;;;;4.93;4.00;;;;;;;;;;5083939;28;20522;-60
2023/06/09 14:27:46;;;;;;;4.30;2.90;;;;;;;;;;5090123;28;20031;-60
2023/06/09 14:30:14;;;;;;;3.47;2.77;;;;;;;;;;5105213;28;20024;-60
2023/06/09 14:32:41;;;;;;;9.30;3.50;;;;;;;;;;5114407;28;20023;-60
2023/06/09 14:35:08;;;;;;;11.97;1.87;;;;;;;;;;5114265;28;20036;-61
2023/06/09 14:37:35;;;;;;;5.37;3.20;;;;;;;;;;5114614;28;20489;-60
2023/06/09 14:40:03;;;;;;;4.73;3.40;;;;;;;;;;5106610;28;20027;-60
2023/06/09 14:42:29;;;;;;;3.50;2.80;;;;;;;;;;5088486;28;20036;-60
2023/06/09 14:44:56;;;;;;;2.60;2.00;;;;;;;;;;5088295;28;20509;-61
2023/06/09 14:47:23;;;;;;;12.93;3.10;;;;;;;;;;5088220;28;20036;-60